createdAt,value
2018-09-14T00:02:02.218Z,5.40
2018-09-14T00:04:30.421Z,4.90
2018-09-14T00:06:58.589Z,5.83
2018-09-14T00:09:26.777Z,5.77
2018-09-14T00:11:54.966Z,6.20
2018-09-14T00:14:23.169Z,5.53
2018-09-14T00:16:51.348Z,4.70
2018-09-14T00:19:19.562Z,4.30
2018-09-14T00:21:47.757Z,5.73
2018-09-14T00:24:15.941Z,5.10
2018-09-14T00:26:44.152Z,3.13
2018-09-14T00:29:12.328Z,3.77
2018-09-14T00:31:40.536Z,4.30
2018-09-14T00:34:08.925Z,3.50
2018-09-14T00:36:37.145Z,3.90
2018-09-14T00:39:07.611Z,4.33
2018-09-14T00:41:35.827Z,4.30
2018-09-14T00:44:04.092Z,6.50
2018-09-14T00:46:32.323Z,7.27
2018-09-14T00:49:00.488Z,8.63
2018-09-14T00:51:28.767Z,9.77
2018-09-14T00:53:57.015Z,10.20
2018-09-14T00:56:25.257Z,11.20
2018-09-14T00:58:53.449Z,13.40
2018-09-14T01:01:21.673Z,15.00
2018-09-14T01:03:49.854Z,13.97
2018-09-14T01:06:18.061Z,14.73
2018-09-14T01:08:46.261Z,15.53
2018-09-14T01:11:14.457Z,16.87
2018-09-14T01:13:42.640Z,17.80
2018-09-14T01:16:10.881Z,20.77
2018-09-14T01:18:39.158Z,20.30
2018-09-14T01:21:07.364Z,18.20
2018-09-14T01:23:35.535Z,20.97
2018-09-14T01:26:03.809Z,21.63
2018-09-14T01:28:31.993Z,23.97
2018-09-14T01:31:00.280Z,24.60
2018-09-14T01:33:28.495Z,25.50
2018-09-14T01:36:02.255Z,25.60
2018-09-14T01:38:30.459Z,24.27
2018-09-14T01:40:58.677Z,26.60
2018-09-14T01:43:26.885Z,27.50
2018-09-14T01:45:55.086Z,27.60
2018-09-14T01:48:23.292Z,25.77
2018-09-14T01:50:51.485Z,28.20
2018-09-14T01:53:19.733Z,26.87
2018-09-14T01:55:47.916Z,28.30
2018-09-14T01:58:16.113Z,27.90
2018-09-14T02:00:44.272Z,29.23
2018-09-14T02:03:12.477Z,29.30
2018-09-14T02:05:40.664Z,29.17
2018-09-14T02:08:08.888Z,30.10
2018-09-14T02:10:37.105Z,28.43
2018-09-14T02:13:05.318Z,29.73
2018-09-14T02:15:33.508Z,28.73
2018-09-14T02:18:01.718Z,28.70
2018-09-14T02:20:29.906Z,27.50
2018-09-14T02:22:58.108Z,29.00
2018-09-14T02:25:26.331Z,27.87
2018-09-14T02:27:54.560Z,31.07
2018-09-14T02:30:22.741Z,28.30
2018-09-14T02:32:50.932Z,28.00
2018-09-14T02:35:19.116Z,27.47
2018-09-14T02:37:47.338Z,23.63
2018-09-14T02:40:15.521Z,21.60
2018-09-14T02:42:43.792Z,20.37
2018-09-14T02:45:12.065Z,21.23
2018-09-14T02:47:40.281Z,18.13
2018-09-14T02:50:08.486Z,17.60
2018-09-14T02:52:36.741Z,20.13
2018-09-14T02:55:05.093Z,17.80
2018-09-14T02:57:33.297Z,18.63
2018-09-14T03:00:01.487Z,18.40
2018-09-14T03:02:29.722Z,20.03
2018-09-14T03:04:57.949Z,19.00
2018-09-14T03:07:26.142Z,20.37
2018-09-14T03:09:54.360Z,17.73
2018-09-14T03:12:22.541Z,17.73
2018-09-14T03:14:50.753Z,16.83
2018-09-14T03:17:18.953Z,19.50
2018-09-14T03:19:47.169Z,18.77
2018-09-14T03:22:15.353Z,18.40
2018-09-14T03:24:43.550Z,19.10
2018-09-14T03:27:11.740Z,20.63
2018-09-14T03:29:39.945Z,21.17
2018-09-14T03:32:08.152Z,20.13
2018-09-14T03:34:36.383Z,19.90
2018-09-14T03:37:04.573Z,15.17
2018-09-14T03:39:32.771Z,15.20
2018-09-14T03:42:01.038Z,15.83
2018-09-14T03:44:29.244Z,14.60
2018-09-14T03:46:57.414Z,15.37
2018-09-14T03:49:25.629Z,16.00
2018-09-14T03:51:53.816Z,15.57
2018-09-14T03:54:22.029Z,16.80
2018-09-14T03:56:50.226Z,12.63
2018-09-14T03:59:18.481Z,9.10
2018-09-14T04:01:46.654Z,7.03
2018-09-14T04:04:14.852Z,6.10
2018-09-14T04:06:43.021Z,6.77
2018-09-14T04:09:11.574Z,7.03
2018-09-14T04:11:39.748Z,6.07
2018-09-14T04:14:08.041Z,7.20
2018-09-14T04:16:36.216Z,7.00
2018-09-14T04:19:05.226Z,7.20
2018-09-14T04:21:34.809Z,7.20
2018-09-14T04:24:03.355Z,8.80
2018-09-14T04:26:31.574Z,8.70
2018-09-14T04:29:00.406Z,8.80
2018-09-14T04:31:28.815Z,8.80
2018-09-14T04:33:57.106Z,8.50
2018-09-14T04:36:25.321Z,7.73
2018-09-14T04:38:53.515Z,8.50
2018-09-14T04:41:21.730Z,9.57
2018-09-14T04:43:49.920Z,7.93
2018-09-14T04:46:18.128Z,7.73
2018-09-14T04:48:46.309Z,8.27
2018-09-14T04:51:14.623Z,8.63
2018-09-14T04:53:42.864Z,8.10
2018-09-14T04:56:11.081Z,10.53
2018-09-14T04:58:39.288Z,10.67
2018-09-14T05:01:07.507Z,9.33
2018-09-14T05:03:35.676Z,9.07
2018-09-14T05:06:03.956Z,8.70
2018-09-14T05:08:32.145Z,8.73
2018-09-14T05:11:00.385Z,8.47
2018-09-14T05:13:28.558Z,8.90
2018-09-14T05:15:56.760Z,9.60
2018-09-14T05:18:25.032Z,9.10
2018-09-14T05:20:53.349Z,8.03
2018-09-14T05:23:21.533Z,9.90
2018-09-14T05:25:49.757Z,10.30
2018-09-14T05:28:17.943Z,10.17
2018-09-14T05:30:46.153Z,11.40
2018-09-14T05:33:14.366Z,10.87
2018-09-14T05:35:42.577Z,11.83
2018-09-14T05:38:10.762Z,11.40
2018-09-14T05:40:38.989Z,11.90
2018-09-14T05:43:07.165Z,11.37
2018-09-14T05:45:35.426Z,11.50
2018-09-14T05:48:03.668Z,13.63
2018-09-14T05:50:31.909Z,13.20
2018-09-14T05:53:00.229Z,9.73
2018-09-14T05:55:28.464Z,11.77
2018-09-14T05:57:58.704Z,11.40
2018-09-14T06:00:27.282Z,12.20
2018-09-14T06:02:55.516Z,13.63
2018-09-14T06:05:23.818Z,10.97
2018-09-14T06:07:52.023Z,10.87
2018-09-14T06:10:20.209Z,11.33
2018-09-14T06:12:48.450Z,10.27
2018-09-14T06:15:16.635Z,9.37
2018-09-14T06:17:46.158Z,12.30
2018-09-14T06:20:14.337Z,12.13
2018-09-14T06:22:42.621Z,10.60
2018-09-14T06:25:10.770Z,11.60
2018-09-14T06:27:38.973Z,8.23
2018-09-14T06:30:07.249Z,12.13
2018-09-14T06:32:35.469Z,10.37
2018-09-14T06:35:10.492Z,11.50
2018-09-14T06:37:38.993Z,11.80
2018-09-14T06:40:07.154Z,11.60
2018-09-14T06:42:35.381Z,11.50
2018-09-14T06:45:03.641Z,9.50
2018-09-14T06:47:31.849Z,10.30
2018-09-14T06:50:00.004Z,10.40
2018-09-14T06:52:28.278Z,8.20
2018-09-14T06:54:56.495Z,10.57
2018-09-14T06:57:24.714Z,8.03
2018-09-14T06:59:52.902Z,8.40
2018-09-14T07:02:21.130Z,7.63
2018-09-14T07:04:49.381Z,7.23
2018-09-14T07:07:17.600Z,7.17
2018-09-14T07:09:45.782Z,7.40
2018-09-14T07:12:13.981Z,7.80
2018-09-14T07:14:42.197Z,7.20
2018-09-14T07:17:10.365Z,9.00
2018-09-14T07:19:38.566Z,8.60
2018-09-14T07:22:07.215Z,8.30
2018-09-14T07:24:35.592Z,6.90
2018-09-14T07:27:03.753Z,8.10
2018-09-14T07:29:31.983Z,8.83
2018-09-14T07:32:00.165Z,9.70
2018-09-14T07:34:28.385Z,8.33
2018-09-14T07:36:56.569Z,7.57
2018-09-14T07:39:24.771Z,8.13
2018-09-14T07:41:53.013Z,8.50
2018-09-14T07:44:21.278Z,8.90
2018-09-14T07:46:49.465Z,8.43
2018-09-14T07:49:17.701Z,8.90
2018-09-14T07:51:45.865Z,8.00
2018-09-14T07:54:14.141Z,7.00
2018-09-14T07:56:42.354Z,7.90
2018-09-14T07:59:10.560Z,7.03
2018-09-14T08:01:39.155Z,7.60
2018-09-14T08:04:07.361Z,7.40
2018-09-14T08:06:35.580Z,6.87
2018-09-14T08:09:06.293Z,5.70
2018-09-14T08:11:34.977Z,6.00
2018-09-14T08:14:03.249Z,5.80
2018-09-14T08:16:31.401Z,5.30
2018-09-14T08:18:59.689Z,6.87
2018-09-14T08:21:27.926Z,5.70
2018-09-14T08:23:56.519Z,6.43
2018-09-14T08:26:24.726Z,5.83
2018-09-14T08:28:52.991Z,6.37
2018-09-14T08:31:21.481Z,6.17
2018-09-14T08:33:49.649Z,6.03
2018-09-14T08:36:17.844Z,6.57
2018-09-14T08:38:47.489Z,5.80
2018-09-14T08:41:15.733Z,6.30
2018-09-14T08:43:43.916Z,6.30
2018-09-14T08:46:12.151Z,6.50
2018-09-14T08:48:40.388Z,5.50
2018-09-14T08:51:08.884Z,5.93
2018-09-14T08:53:37.262Z,6.10
2018-09-14T08:56:05.853Z,6.00
2018-09-14T08:58:34.086Z,6.93
2018-09-14T09:01:02.408Z,5.80
2018-09-14T09:03:30.644Z,6.50
2018-09-14T09:05:58.903Z,5.77
2018-09-14T09:08:27.073Z,6.37
2018-09-14T09:10:55.269Z,6.30
2018-09-14T09:13:23.442Z,6.67
2018-09-14T09:15:51.641Z,7.30
2018-09-14T09:18:19.848Z,6.20
2018-09-14T09:20:48.067Z,6.27
2018-09-14T09:23:16.253Z,7.37
2018-09-14T09:25:44.462Z,6.23
2018-09-14T09:28:12.665Z,6.30
2018-09-14T09:30:40.913Z,7.20
2018-09-14T09:33:09.085Z,7.30
2018-09-14T09:35:37.780Z,6.10
2018-09-14T09:38:05.972Z,8.17
2018-09-14T09:40:34.200Z,7.27
2018-09-14T09:43:02.439Z,7.77
2018-09-14T09:45:30.650Z,6.93
2018-09-14T09:47:58.870Z,7.13
2018-09-14T09:50:27.097Z,7.40
2018-09-14T09:52:55.344Z,6.40
2018-09-14T09:55:23.541Z,5.87
2018-09-14T09:57:51.801Z,5.70
2018-09-14T10:00:25.965Z,6.40
2018-09-14T10:02:59.769Z,7.37
2018-09-14T10:05:33.377Z,5.60
2018-09-14T10:08:01.649Z,6.43
2018-09-14T10:10:31.018Z,6.00
2018-09-14T10:12:59.262Z,5.93
2018-09-14T10:15:27.451Z,6.00
2018-09-14T10:17:55.685Z,6.73
2018-09-14T10:20:23.908Z,5.60
2018-09-14T10:22:52.146Z,5.77
2018-09-14T10:25:20.380Z,6.37
2018-09-14T10:27:48.606Z,5.50
2018-09-14T10:30:16.785Z,7.13
2018-09-14T10:32:45.093Z,5.53
2018-09-14T10:35:13.383Z,5.77
2018-09-14T10:37:41.586Z,6.07
2018-09-14T10:40:09.852Z,6.00
2018-09-14T10:42:38.761Z,6.30
2018-09-14T10:45:07.093Z,6.57
2018-09-14T10:47:35.298Z,6.30
2018-09-14T10:50:03.698Z,5.33
2018-09-14T10:52:31.915Z,6.07
2018-09-14T10:55:00.162Z,5.37
2018-09-14T10:57:28.401Z,5.93
2018-09-14T10:59:56.590Z,4.47
2018-09-14T11:02:24.792Z,4.27
2018-09-14T11:04:53.077Z,4.77
2018-09-14T11:07:21.286Z,3.80
2018-09-14T11:09:49.515Z,3.80
2018-09-14T11:12:17.705Z,4.40
2018-09-14T11:14:45.931Z,4.03
2018-09-14T11:17:14.105Z,4.50
2018-09-14T11:19:42.336Z,4.40
2018-09-14T11:22:10.998Z,4.87
2018-09-14T11:24:39.390Z,4.17
2018-09-14T11:27:07.605Z,4.63
2018-09-14T11:29:35.832Z,4.67
2018-09-14T11:32:04.030Z,5.10
2018-09-14T11:34:32.275Z,5.00
2018-09-14T11:37:00.800Z,4.87
2018-09-14T11:39:29.024Z,5.83
2018-09-14T11:41:57.233Z,6.70
2018-09-14T11:44:25.515Z,5.30
2018-09-14T11:46:53.705Z,5.27
2018-09-14T11:49:21.925Z,5.00
2018-09-14T11:51:50.129Z,5.33
2018-09-14T11:54:18.481Z,4.30
2018-09-14T11:56:46.666Z,4.90
2018-09-14T11:59:14.955Z,4.17
2018-09-14T12:01:43.197Z,4.30
2018-09-14T12:04:11.458Z,3.97
2018-09-14T12:06:39.636Z,4.17
2018-09-14T12:09:10.126Z,3.67
2018-09-14T12:11:38.836Z,3.30
2018-09-14T12:14:07.289Z,3.40
2018-09-14T12:16:35.487Z,4.63
2018-09-14T12:19:03.754Z,4.43
2018-09-14T12:21:31.945Z,3.90
2018-09-14T12:24:00.170Z,4.67
2018-09-14T12:26:28.518Z,4.13
2018-09-14T12:28:56.751Z,4.70
2018-09-14T12:31:24.954Z,5.00
2018-09-14T12:33:53.176Z,4.63
2018-09-14T12:36:21.467Z,4.83
2018-09-14T12:38:49.637Z,4.97
2018-09-14T12:41:17.871Z,5.00
2018-09-14T12:43:46.306Z,4.70
2018-09-14T12:46:14.579Z,5.80
2018-09-14T12:48:42.884Z,4.47
2018-09-14T12:51:11.042Z,5.03
2018-09-14T12:53:39.229Z,4.20
2018-09-14T12:56:07.790Z,4.67
2018-09-14T12:58:35.990Z,4.23
2018-09-14T13:01:04.286Z,3.60
2018-09-14T13:03:32.545Z,3.90
2018-09-14T13:06:00.833Z,4.40
2018-09-14T13:08:29.080Z,6.53
2018-09-14T13:10:57.405Z,5.80
2018-09-14T13:13:25.624Z,6.20
2018-09-14T13:15:53.873Z,5.67
2018-09-14T13:18:22.073Z,6.10
2018-09-14T13:20:50.882Z,6.30
2018-09-14T13:23:19.093Z,8.07
2018-09-14T13:25:47.349Z,8.00
2018-09-14T13:28:15.558Z,7.80
2018-09-14T13:30:43.769Z,8.47
2018-09-14T13:33:11.956Z,9.70
2018-09-14T13:35:40.190Z,8.33
2018-09-14T13:38:08.398Z,9.57
2018-09-14T13:40:36.625Z,10.67
2018-09-14T13:43:04.819Z,10.57
2018-09-14T13:45:33.041Z,10.33
2018-09-14T13:48:01.221Z,11.93
2018-09-14T13:50:30.385Z,12.10
2018-09-14T13:52:58.598Z,9.93
2018-09-14T13:55:27.457Z,9.73
2018-09-14T13:57:55.901Z,10.07
2018-09-14T14:00:24.138Z,9.67
2018-09-14T14:02:52.477Z,9.80
2018-09-14T14:05:20.671Z,9.70
2018-09-14T14:07:48.941Z,9.83
2018-09-14T14:10:17.155Z,9.60
2018-09-14T14:12:45.403Z,8.33
2018-09-14T14:15:13.588Z,7.33
2018-09-14T14:17:41.847Z,7.40
2018-09-14T14:20:10.061Z,8.10
2018-09-14T14:22:38.288Z,7.80
2018-09-14T14:25:06.559Z,7.90
2018-09-14T14:27:34.860Z,7.37
2018-09-14T14:30:03.110Z,5.30
2018-09-14T14:32:31.337Z,5.63
2018-09-14T14:34:59.637Z,5.00
2018-09-14T14:37:27.861Z,4.23
2018-09-14T14:39:56.213Z,4.90
2018-09-14T14:42:24.430Z,4.93
2018-09-14T14:44:52.606Z,4.30
2018-09-14T14:47:20.831Z,5.67
2018-09-14T14:49:49.046Z,5.70
2018-09-14T14:52:17.271Z,5.03
2018-09-14T14:54:45.500Z,5.57
2018-09-14T14:57:13.717Z,5.03
2018-09-14T14:59:41.937Z,5.30
2018-09-14T15:02:10.176Z,6.93
2018-09-14T15:04:40.185Z,6.40
2018-09-14T15:07:08.561Z,5.70
2018-09-14T15:09:36.778Z,5.80
2018-09-14T15:12:05.454Z,6.00
2018-09-14T15:14:34.062Z,4.80
2018-09-14T15:17:02.294Z,6.10
2018-09-14T15:19:30.681Z,5.10
2018-09-14T15:21:58.917Z,5.03
2018-09-14T15:24:27.177Z,5.20
2018-09-14T15:26:55.369Z,6.03
2018-09-14T15:29:23.602Z,5.10
2018-09-14T15:31:51.818Z,4.60
2018-09-14T15:34:20.068Z,4.90
2018-09-14T15:36:48.257Z,5.10
2018-09-14T15:39:16.505Z,6.27
2018-09-14T15:41:44.717Z,6.13
2018-09-14T15:44:12.950Z,5.47
2018-09-14T15:46:41.126Z,5.63
2018-09-14T15:49:09.412Z,4.50
2018-09-14T15:51:37.649Z,5.37
2018-09-14T15:54:06.181Z,5.47
2018-09-14T15:56:34.362Z,5.30
2018-09-14T15:59:02.596Z,5.37
2018-09-14T16:01:30.792Z,5.50
2018-09-14T16:03:58.994Z,4.80
2018-09-14T16:06:27.279Z,5.43
2018-09-14T16:08:55.581Z,5.20
2018-09-14T16:11:23.833Z,7.17
2018-09-14T16:13:52.159Z,6.60
2018-09-14T16:16:20.394Z,6.67
2018-09-14T16:18:48.665Z,6.40
2018-09-14T16:21:16.865Z,5.70
2018-09-14T16:23:45.217Z,5.60
2018-09-14T16:26:13.426Z,6.10
2018-09-14T16:28:41.672Z,6.20
2018-09-14T16:31:09.865Z,6.67
2018-09-14T16:33:38.134Z,6.13
2018-09-14T16:36:06.410Z,6.63
2018-09-14T16:38:34.654Z,6.90
2018-09-14T16:41:02.890Z,7.40
2018-09-14T16:43:31.131Z,7.17
2018-09-14T16:45:59.387Z,7.20
2018-09-14T16:48:27.582Z,7.63
2018-09-14T16:50:55.917Z,7.23
2018-09-14T16:53:24.397Z,7.47
2018-09-14T16:55:52.632Z,8.13
2018-09-14T16:58:20.819Z,8.00
2018-09-14T17:00:49.309Z,7.13
2018-09-14T17:03:17.490Z,8.10
2018-09-14T17:05:46.202Z,7.63
2018-09-14T17:08:14.422Z,7.93
2018-09-14T17:10:43.064Z,8.03
2018-09-14T17:13:11.258Z,7.90
2018-09-14T17:15:39.932Z,10.40
2018-09-14T17:18:08.156Z,8.67
2018-09-14T17:20:36.373Z,9.53
2018-09-14T17:23:04.557Z,10.33
2018-09-14T17:25:32.756Z,9.53
2018-09-14T17:28:00.930Z,9.13
2018-09-14T17:30:29.194Z,10.30
2018-09-14T17:32:57.361Z,10.17
2018-09-14T17:35:25.616Z,8.10
2018-09-14T17:37:53.905Z,7.13
2018-09-14T17:40:22.109Z,7.27
2018-09-14T17:42:50.289Z,8.10
2018-09-14T17:45:18.485Z,6.57
2018-09-14T17:47:46.680Z,7.87
2018-09-14T17:50:14.953Z,7.67
2018-09-14T17:52:43.238Z,9.20
2018-09-14T17:55:11.464Z,7.80
2018-09-14T17:57:39.637Z,7.90
2018-09-14T18:00:08.461Z,7.03
2018-09-14T18:02:36.625Z,9.40
2018-09-14T18:05:04.908Z,8.37
2018-09-14T18:07:33.117Z,8.80
2018-09-14T18:10:01.295Z,10.13
2018-09-14T18:12:29.513Z,8.40
2018-09-14T18:14:57.681Z,10.10
2018-09-14T18:17:25.934Z,9.10
2018-09-14T18:19:54.784Z,10.73
2018-09-14T18:22:22.975Z,9.37
2018-09-14T18:24:51.141Z,9.07
2018-09-14T18:27:19.345Z,10.07
2018-09-14T18:29:47.534Z,10.03
2018-09-14T18:32:16.357Z,9.90
2018-09-14T18:34:44.547Z,11.90
2018-09-14T18:37:12.737Z,10.50
2018-09-14T18:39:40.921Z,9.93
2018-09-14T18:42:09.518Z,9.80
2018-09-14T18:44:37.701Z,10.13
2018-09-14T18:47:06.248Z,9.97
2018-09-14T18:49:35.429Z,9.80
2018-09-14T18:52:03.976Z,9.00
2018-09-14T18:54:32.179Z,9.30
2018-09-14T18:57:00.417Z,9.50
2018-09-14T18:59:28.599Z,11.20
2018-09-14T19:01:56.839Z,11.83
2018-09-14T19:04:26.138Z,11.40
2018-09-14T19:06:54.365Z,9.40
2018-09-14T19:09:23.110Z,12.50
2018-09-14T19:11:51.326Z,12.03
2018-09-14T19:14:19.504Z,11.50
2018-09-14T19:16:48.273Z,9.90
2018-09-14T19:28:16.708Z,11.80
2018-09-14T19:30:45.540Z,10.73
2018-09-14T19:33:13.748Z,11.00
2018-09-14T19:35:41.939Z,11.03
2018-09-14T19:38:10.923Z,9.87
2018-09-14T19:40:39.425Z,10.50
2018-09-14T19:43:08.631Z,11.43
2018-09-14T19:45:36.800Z,10.93
2018-09-14T19:48:06.813Z,10.27
2018-09-14T19:50:35.793Z,10.57
2018-09-14T19:53:04.005Z,10.00
2018-09-14T19:55:32.256Z,10.10
2018-09-14T19:58:00.917Z,9.80
2018-09-14T20:00:30.745Z,11.17
2018-09-14T20:02:58.953Z,11.13
2018-09-14T20:05:27.105Z,11.50
2018-09-14T20:07:55.892Z,11.77
2018-09-14T20:10:24.441Z,12.63
2018-09-14T20:12:52.648Z,12.30
2018-09-14T20:15:20.821Z,12.50
2018-09-14T20:17:49.172Z,11.43
2018-09-14T20:20:17.356Z,11.90
2018-09-14T20:22:45.674Z,11.70
2018-09-14T20:25:13.868Z,10.77
2018-09-14T20:27:42.093Z,12.43
2018-09-14T20:30:10.298Z,12.10
2018-09-14T20:32:38.485Z,10.57
2018-09-14T20:35:06.957Z,11.87
2018-09-14T20:37:35.117Z,10.50
2018-09-14T20:40:03.429Z,13.00
2018-09-14T20:42:32.414Z,11.60
2018-09-14T20:45:00.658Z,11.40
2018-09-14T20:47:28.877Z,12.23
2018-09-14T20:49:57.118Z,11.57
2018-09-14T20:52:25.345Z,12.10
2018-09-14T20:54:53.666Z,11.37
2018-09-14T20:57:22.251Z,14.03
2018-09-14T20:59:50.488Z,12.47
2018-09-14T21:02:18.717Z,12.20
2018-09-14T21:04:46.938Z,12.60
2018-09-14T21:07:15.352Z,12.07
2018-09-14T21:09:43.773Z,12.93
2018-09-14T21:12:12.222Z,12.43
2018-09-14T21:14:40.676Z,14.10
2018-09-14T21:17:08.837Z,11.87
2018-09-14T21:19:37.064Z,13.00
2018-09-14T21:22:05.513Z,12.07
2018-09-14T21:24:33.772Z,11.30
2018-09-14T21:27:02.018Z,12.00
2018-09-14T21:29:30.509Z,11.33
2018-09-14T21:31:58.686Z,11.70
2018-09-14T21:34:26.885Z,9.37
2018-09-14T21:36:55.073Z,11.50
2018-09-14T21:39:23.305Z,11.17
2018-09-14T21:41:51.489Z,9.60
2018-09-14T21:44:19.697Z,11.47
2018-09-14T21:46:47.868Z,11.37
2018-09-14T21:49:16.082Z,11.10
2018-09-14T21:51:44.302Z,10.10
2018-09-14T21:54:12.603Z,12.03
2018-09-14T21:56:40.778Z,11.67
2018-09-14T21:59:08.941Z,12.70
2018-09-14T22:01:37.131Z,10.73
2018-09-14T22:04:05.318Z,11.13
2018-09-14T22:06:33.542Z,11.73
2018-09-14T22:09:01.704Z,10.63
2018-09-14T22:11:29.920Z,11.60
2018-09-14T22:13:58.097Z,11.23
2018-09-14T22:16:26.291Z,11.20
2018-09-14T22:18:54.493Z,11.23
2018-09-14T22:21:22.760Z,10.67
2018-09-14T22:23:50.967Z,12.00
2018-09-14T22:26:19.171Z,12.53
2018-09-14T22:28:47.625Z,10.17
2018-09-14T22:31:15.829Z,10.20
2018-09-14T22:33:43.976Z,11.87
2018-09-14T22:36:12.188Z,11.37
2018-09-14T22:38:40.356Z,9.93
2018-09-14T22:41:08.608Z,12.37
2018-09-14T22:43:36.770Z,12.53
2018-09-14T22:46:04.969Z,11.30
2018-09-14T22:48:33.137Z,12.10
2018-09-14T22:51:01.368Z,10.97
2018-09-14T22:53:29.537Z,11.20
2018-09-14T22:55:57.728Z,10.57
2018-09-14T22:58:25.900Z,11.40
2018-09-14T23:00:59.696Z,10.30
2018-09-14T23:03:27.871Z,11.10
2018-09-14T23:05:56.082Z,10.70
2018-09-14T23:08:24.267Z,10.10
2018-09-14T23:10:52.464Z,11.10
2018-09-14T23:13:20.662Z,11.83
2018-09-14T23:15:56.424Z,12.57
2018-09-14T23:18:24.608Z,11.80
2018-09-14T23:20:52.797Z,13.33
2018-09-14T23:23:21.176Z,11.50
2018-09-14T23:25:50.313Z,11.40
2018-09-14T23:28:18.792Z,13.77
2018-09-14T23:30:47.012Z,11.67
2018-09-14T23:33:15.313Z,12.90
2018-09-14T23:35:43.503Z,13.10
2018-09-14T23:38:11.741Z,11.50
2018-09-14T23:40:39.937Z,12.70
2018-09-14T23:43:08.521Z,12.47
2018-09-14T23:45:36.885Z,12.17
2018-09-14T23:48:05.109Z,9.80
2018-09-14T23:50:33.310Z,12.60
2018-09-14T23:53:01.510Z,11.97
2018-09-14T23:55:29.660Z,11.60
2018-09-14T23:57:57.869Z,11.30
